Terminal Aerodrome Forecast
Issued by NWS

Home | Current Version | Previous Version | Text Only | Print | Product List | Glossary On
Versions: 1 2 3 4 5 6 7 8 9 10 11 12 13 14 15 16 17 18
000
FTUS43 KAPX 220948 AAA
TAFAPN
TAF AMD
KAPN 220948Z 2210/2306 21010KT P6SM BKN023 WS014/23045KT
     FM221300 22010KT P6SM OVC015 WS014/24042KT
     FM221700 22008KT P6SM OVC010 WS014/24038KT
     FM230000 20004KT P6SM OVC010 WS014/26028KT=

USA.gov is the U.S. government's official web portal to all federal, state and local government web resources and services.